Baltic, SD

11:38 PM CDT on September 01, 2014 (GMT -0500)
Madison Municipal | Change Station
CLOSE
Current Station
Airport
Location: Madison,
Elevation: 1716 ft
Nearby Weather Stations

Elev 1716 ft 44.01 °N, 97.08 °W | Updated 8 minutes ago

Overcast
Overcast
59 °F
Feels Like 59 °F
N
12
Wind Variable Wind from West

Today
High -- | Low -- °F
--% Chance of Precip.
Yesterday
High -- | Low -- °F
Precip. -- in
6:50 AM 8:02 PM
Waxing Crescent, 47% visible
Pressure 29.90 in
Visibility 10.0 miles
Clouds Few 5500 ft
Mostly Cloudy 6500 ft
Overcast 8000 ft
Dew Point 55 °F
Humidity 88%
Rainfall 0.08 in
Snow Depth Not available.
UV 0 out of 12
Pollen 7.80 out of 12
Air Quality Not available.
Flu Activity Not available.
METAR KMDS 020430Z AUTO 27010KT 10SM FEW055 BKN065 OVC080 15/13 A2990 RMK AO2

More Conditions Fewer Conditions

Pressure 29.90 in
Visibility 10.0 miles
Clouds Few 5500 ft
Mostly Cloudy 6500 ft
Overcast 8000 ft
Dew Point 55 °F
Humidity 88%
Rainfall 0.08 in
Snow Depth Not available.
UV 0 out of 12
Pollen 7.80 out of 12
Air Quality Not available.
Flu Activity Not available.
METAR KMDS 020430Z AUTO 27010KT 10SM FEW055 BKN065 OVC080 15/13 A2990 RMK AO2

More Conditions Fewer Conditions

10-Day Weather Forecast

Almanac

Astronomy

Sep. 01, 2014 Rise Set
Actual Time 6:50 AM CDT 8:02 PM CDT
Civil Twilight 6:20 AM CDT 8:31 PM CDT
Nautical Twilight 5:45 AM CDT 9:07 PM CDT
Astronomical Twilight 5:07 AM CDT 9:44 PM CDT
Moon 1:50 PM CDT (9/1) 11:51 PM CDT (9/1)
Length of Visible Light 14h 11m
Length of Day
13h 11m
Tomorrow will be 2m 53s shorter.
Waxing Crescent, 47% of the Moon is Illuminated
Sep 2
Waxing Crescent
Sep 2
First Quarter
Sep 8
Full
Sep 15
Last Quarter
Sep 24
New

Yesterday's Extremes

State Highs State Lows

Community

WunderPhotos

Upload Photos

1,749,566 photos uploaded!

WunderBlogs® & News

Nearby

Snow Depth

Station Depth Elevation
North Rapid Creek 0 in 6130 ft
Blind Park 0 in 6890 ft

Earthquake Activity

City Distance Mag. Time & Date
No recent earthquake activity has been reported nearby.
Minimum magnitude displayed is 2.5.

Coastal Water Temperatures

Place Temperature
No Stations Reporting

Nearby Weather Stations